首页
METAR-TAF:

METAR-TAF

机场 :

温尼伯詹姆斯·阿姆斯特朗·理查森国际机场

温尼伯, 曼尼托巴, 加拿大

纬度: 49-54N, 经度: 097-14W, 海拔: 239米

当前天气观测

该预报发布于51分钟前的16:00 UTC
风速5节,风向
温度 -1°C
湿度 93%
气压 1018 hPa
能見度: 1.6公里
多云层高于500英尺
阴天层高于1400英尺
小雪

METAR: CYWG 201600Z 08005KT 1SM R31/6000FT/N R36/P6000FT/U -SN BKN005 OVC014 M01/M02 A3006 RMK SN6SF1SC1 SLP195

时间: 10:51 (16:51 UTC)

预报

该预报发布于2小时和14分钟前的14:37 UTC
预报有效从20日的 14点(UTC)到 21日的 12点(UTC)
风速6节,风向东转东北
能見度: 10公里
散云层高于1500英尺
阴天层高于2500英尺
短暂存在
从 20日的 14点(UTC)到 20日的 16点(UTC)
能見度: 3.2公里
阴天层高于1500英尺
小雪
从 20日的 1600点(UTC)
风速10节,风向东北
能見度: 1.6公里
层高于600英尺
小雪
短暂存在
从 20日的 16点(UTC)到 20日的 22点(UTC)
能見度: 6.4公里
阴天层高于1500英尺
小雪
几率 30%
从 20日的 16点(UTC)到 20日的 22点(UTC)
能見度: 1.2公里
小阵雪
从 20日的 2200点(UTC)
风速12节,风向
能見度: 9.7公里
阴天层高于2500英尺
小雪
短暂存在
从 20日的 22点(UTC)到 20日的 24点(UTC)
能見度: 3.2公里
阴天层高于1500英尺
小阵雪
从 21日的 0000点(UTC)
风速12节,风向北转西北,有时为22节阵风
能見度: 10公里
散云层高于2000英尺
短暂存在
从 21日的 00点(UTC)到 21日的 12点(UTC)
多云层高于2000英尺

TAF: CYWG 201437Z 2014/2112 06006KT P6SM SCT015 OVC025 TEMPO 2014/2016 2SM -SN OVC015 FM201600 04010KT 1SM -SN VV006 TEMPO 2016/2022 4SM -SN OVC015 PROB30 2016/2022 3/4SM -SHSN FM202200 01012KT 6SM -SN OVC025 TEMPO 2022/2024 2SM -SHSN OVC015 FM210000 34012G22KT P6SM SCT020 TEMPO 2100/2112 BKN020 RMK NXT FCST BY 201800Z

超过4000个机场的气象观测和天气预报(METAR&TAF报告)。

可查询的气象台以黄色和红色小点在地图上表示。

将鼠标移到小点上方,可查看气象台名称。

然后点击查看天气观测和预报。

如需切换地图:点击带黑十字的绿色按钮放大地图;点击带横线的绿色按钮缩小地图;或者点击绿色箭头查看邻近地区的地图。


METAR-TAF: